Time;durP1;ratioP1;P1;durP2;ratioP2;P2;SDS_P1;SDS_P2;PMS_P1;PMS_P2;Temp;Humidity;BMP_temperature;BMP_pressure;BME280_temperature;BME280_humidity;BME280_pressure;Samples;Min_cycle;Max_cycle;Signal;HPM_P1;HPM_P2
2022/01/04 00:00:28;;;;;;;19.30;3.67;;;17.40;25.80;;;;;;5053794;28;20077;-65
2022/01/04 00:02:55;;;;;;;2.35;1.25;;;17.30;26.20;;;;;;5050394;28;20636;-63
2022/01/04 00:05:21;;;;;;;5.05;1.02;;;17.30;25.30;;;;;;5069541;28;20088;-65
2022/01/04 00:07:48;;;;;;;4.05;1.00;;;17.20;25.60;;;;;;5052803;28;20560;-66
2022/01/04 00:10:20;;;;;;;;;;;17.10;25.60;;;;;;5051815;28;20459;-65
2022/01/04 00:15:31;;;;;;;6.00;1.55;;;16.90;25.90;;;;;;5069554;28;20138;-66
2022/01/04 00:17:58;;;;;;;5.43;1.13;;;16.80;26.70;;;;;;5049892;28;20112;-66
2022/01/04 00:20:24;;;;;;;4.13;1.60;;;16.70;26.70;;;;;;5071137;28;20077;-64
2022/01/04 00:22:50;;;;;;;;;;;16.50;26.90;;;;;;5035700;28;20100;-64
2022/01/04 00:25:17;;;;;;;6.65;2.15;;;16.40;27.30;;;;;;5070002;28;19980;-64
2022/01/04 00:27:43;;;;;;;6.68;1.60;;;16.40;29.70;;;;;;5047933;28;20084;-64
2022/01/04 00:30:10;;;;;;;9.07;1.70;;;16.10;40.30;;;;;;5052140;28;20032;-64
2022/01/04 00:32:37;;;;;;;11.65;2.30;;;16.10;29.20;;;;;;5051577;28;20087;-64
2022/01/04 00:35:03;;;;;;;5.60;2.28;;;16.00;29.80;;;;;;5051707;28;20039;-66
2022/01/04 00:37:30;;;;;;;57.08;3.22;;;16.00;30.20;;;;;;5051186;28;20073;-64
2022/01/04 00:39:57;;;;;;;11.45;3.58;;;15.70;30.70;;;;;;5051343;28;20144;-64
2022/01/04 00:42:24;;;;;;;10.73;2.88;;;15.60;31.60;;;;;;5048496;28;20081;-64
2022/01/04 00:44:50;;;;;;;;;;;15.50;31.90;;;;;;5049724;28;20100;-63
2022/01/04 00:47:19;;;;;;;11.02;2.60;;;15.30;32.20;;;;;;5051397;28;19956;-65
2022/01/04 00:49:46;;;;;;;7.18;2.60;;;15.10;32.70;;;;;;5046391;28;20069;-65
2022/01/04 00:52:16;;;;;;;;;;;15.00;32.70;;;;;;5053431;28;20520;-65
2022/01/04 00:54:42;;;;;;;13.50;3.67;;;14.80;33.30;;;;;;5053351;28;19961;-65
2022/01/04 00:57:08;;;;;;;;;;;14.70;34.10;;;;;;5053568;28;20070;-64
2022/01/04 00:59:35;;;;;;;15.40;5.93;;;14.60;34.70;;;;;;5052802;28;20365;-64
2022/01/04 01:02:01;;;;;;;15.43;5.80;;;14.50;34.60;;;;;;5052126;28;20088;-65
2022/01/04 01:04:27;;;;;;;;;;;14.40;35.30;;;;;;5053590;28;20092;-64
2022/01/04 01:06:53;;;;;;;13.75;5.25;;;14.30;36.10;;;;;;5053327;28;20587;-67
2022/01/04 01:09:22;;;;;;;21.92;5.72;;;14.10;35.60;;;;;;5052742;28;20071;-62
2022/01/04 01:11:49;;;;;;;17.38;4.78;;;14.10;36.30;;;;;;5070130;28;20148;-64
2022/01/04 01:14:15;;;;;;;13.20;4.65;;;14.00;36.70;;;;;;5053223;28;20567;-64
2022/01/04 01:16:42;;;;;;;25.27;5.50;;;14.00;37.00;;;;;;5051219;28;20456;-63
2022/01/04 01:19:08;;;;;;;24.35;7.45;;;13.90;37.80;;;;;;5051381;28;20092;-63
2022/01/04 01:21:34;;;;;;;;;;;13.80;38.90;;;;;;5051151;28;20543;-63
2022/01/04 01:24:01;;;;;;;24.73;6.03;;;13.70;38.80;;;;;;5069205;28;19977;-64
2022/01/04 01:26:27;;;;;;;22.13;6.85;;;13.60;39.00;;;;;;5068069;28;20085;-63
2022/01/04 01:28:54;;;;;;;22.90;7.00;;;13.40;39.20;;;;;;5050510;28;20108;-66
2022/01/04 01:31:20;;;;;;;;;;;13.30;39.50;;;;;;5068816;28;20073;-65
2022/01/04 01:33:46;;;;;;;17.42;6.07;;;13.30;40.20;;;;;;5050993;28;19957;-65
2022/01/04 01:36:12;;;;;;;18.83;6.78;;;13.30;40.00;;;;;;5069226;28;20069;-62
2022/01/04 01:38:42;;;;;;;20.02;6.55;;;13.10;40.50;;;;;;5051774;28;20536;-66
2022/01/04 01:41:08;;;;;;;32.28;6.40;;;13.10;41.00;;;;;;5051525;28;20085;-67
2022/01/04 01:43:34;;;;;;;19.15;6.80;;;13.00;41.40;;;;;;5051877;28;20105;-65
2022/01/04 01:46:01;;;;;;;36.40;7.82;;;13.00;41.70;;;;;;5051588;28;20544;-62
2022/01/04 01:48:27;;;;;;;27.27;7.22;;;12.80;42.80;;;;;;5070838;28;20418;-64
2022/01/04 01:50:54;;;;;;;22.10;7.72;;;12.80;53.00;;;;;;5052314;28;20487;-65
2022/01/04 01:53:21;;;;;;;33.45;9.88;;;12.70;42.90;;;;;;5052134;28;20535;-64
2022/01/04 01:55:49;;;;;;;35.22;9.32;;;12.70;43.10;;;;;;5052264;28;20091;-63
2022/01/04 01:58:15;;;;;;;30.95;9.02;;;12.60;43.20;;;;;;5052702;28;20096;-66
2022/01/04 02:00:41;;;;;;;;;;;12.60;43.40;;;;;;5051925;28;20413;-65
2022/01/04 02:03:08;;;;;;;34.00;8.45;;;12.50;43.40;;;;;;5069738;28;20027;-66
2022/01/04 02:05:34;;;;;;;25.75;9.23;;;12.40;43.70;;;;;;5052207;28;20089;-66
2022/01/04 02:08:04;;;;;;;33.17;9.40;;;12.30;43.90;;;;;;5051374;28;20130;-63
2022/01/04 02:10:31;;;;;;;32.38;9.13;;;12.10;86.50;;;;;;5068834;28;20096;-65
2022/01/04 02:12:57;;;;;;;37.38;9.13;;;12.30;50.70;;;;;;5050379;28;20069;-63
2022/01/04 02:15:25;;;;;;;;;;;12.20;44.70;;;;;;5050494;28;20069;-64
2022/01/04 02:17:53;;;;;;;33.70;7.63;;;12.20;45.00;;;;;;5048180;28;20015;-66
2022/01/04 02:20:19;;;;;;;;;;;12.10;45.50;;;;;;5038063;28;20165;-64
2022/01/04 02:22:47;;;;;;;41.55;9.65;;;11.70;87.50;;;;;;5048104;28;20003;-66
2022/01/04 02:25:14;;;;;;;35.45;9.38;;;;;;;;;;5051567;28;20076;-67
2022/01/04 02:27:40;;;;;;;;;;;11.60;47.00;;;;;;5047068;28;20583;-67
2022/01/04 02:30:10;;;;;;;38.97;10.32;;;11.70;90.00;;;;;;5046369;28;19934;-65
2022/01/04 02:32:36;;;;;;;34.35;10.80;;;11.70;49.70;;;;;;5048226;28;20047;-65
2022/01/04 02:35:04;;;;;;;42.75;11.90;;;11.40;76.50;;;;;;5051164;28;20379;-67
2022/01/04 02:37:32;;;;;;;39.47;11.57;;;11.60;90.30;;;;;;5048386;28;20521;-67
2022/01/04 02:39:59;;;;;;;30.27;10.93;;;12.10;71.20;;;;;;5050037;28;20081;-68
2022/01/04 02:42:25;;;;;;;44.80;12.27;;;11.10;90.80;;;;;;5053324;28;20072;-68
2022/01/04 02:44:52;;;;;;;53.10;12.55;;;11.20;51.10;;;;;;5057006;28;20054;-66
2022/01/04 02:47:19;;;;;;;48.75;14.25;;;11.30;51.20;;;;;;5048652;28;20048;-67
2022/01/04 02:49:46;;;;;;;37.47;13.65;;;11.40;47.80;;;;;;5049849;28;20673;-66
2022/01/04 02:52:12;;;;;;;38.22;13.13;;;;;;;;;;5051261;28;20051;-68
2022/01/04 02:54:39;;;;;;;;;;;11.40;51.30;;;;;;5049605;28;20077;-66
2022/01/04 02:57:05;;;;;;;36.92;14.40;;;11.40;55.40;;;;;;5051247;28;20317;-66
2022/01/04 02:59:32;;;;;;;36.05;13.40;;;11.10;48.40;;;;;;5051985;28;20077;-64
2022/01/04 03:01:58;;;;;;;53.88;15.77;;;11.00;48.60;;;;;;5046949;28;21654;-66
2022/01/04 03:04:24;;;;;;;;;;;11.00;48.60;;;;;;5054426;28;20108;-65
2022/01/04 03:06:51;;;;;;;51.42;15.85;;;10.90;48.70;;;;;;5048054;28;20389;-66
2022/01/04 03:09:17;;;;;;;40.25;15.57;;;11.00;49.20;;;;;;5049779;28;20073;-65
2022/01/04 03:11:43;;;;;;;;;;;11.10;49.40;;;;;;5050941;28;20090;-64
2022/01/04 03:14:10;;;;;;;43.88;17.13;;;11.00;49.30;;;;;;5056025;28;20386;-66
2022/01/04 03:16:36;;;;;;;;;;;11.00;49.40;;;;;;5066523;28;20121;-66
2022/01/04 03:19:06;;;;;;;52.53;20.10;;;10.60;91.50;;;;;;5048666;28;20348;-67
2022/01/04 03:21:34;;;;;;;54.60;22.20;;;10.80;49.50;;;;;;5047695;28;20080;-65
2022/01/04 03:24:02;;;;;;;63.50;24.48;;;10.80;50.20;;;;;;5049866;28;20077;-67
2022/01/04 03:26:29;;;;;;;43.10;21.70;;;10.80;49.30;;;;;;5048798;28;20595;-68
2022/01/04 03:28:56;;;;;;;60.78;23.65;;;10.70;49.70;;;;;;5048975;28;20130;-65
2022/01/04 03:31:23;;;;;;;64.63;24.48;;;10.60;49.40;;;;;;5050168;28;20084;-66
2022/01/04 03:33:49;;;;;;;54.05;25.08;;;;;;;;;;5052325;28;20050;-67
2022/01/04 03:36:16;;;;;;;59.25;26.50;;;10.60;63.60;;;;;;5058324;28;20053;-67
2022/01/04 03:38:43;;;;;;;65.07;28.15;;;10.50;59.10;;;;;;5048796;28;20599;-65
2022/01/04 03:41:10;;;;;;;51.47;25.15;;;10.60;65.60;;;;;;5049107;28;20392;-65
2022/01/04 03:43:39;;;;;;;56.08;25.38;;;;;;;;;;5049747;28;20081;-64
2022/01/04 03:46:07;;;;;;;72.70;26.08;;;10.70;62.60;;;;;;5051116;28;20480;-65
2022/01/04 03:48:34;;;;;;;60.75;24.70;;;10.60;69.00;;;;;;5052086;28;20044;-65
2022/01/04 03:51:01;;;;;;;61.70;24.63;;;;;;;;;;5052286;28;20077;-65
2022/01/04 03:53:27;;;;;;;56.88;23.80;;;;;;;;;;5057177;28;20826;-66
2022/01/04 03:55:53;;;;;;;;;;;10.20;67.50;;;;;;5053016;28;20053;-65
2022/01/04 03:58:20;;;;;;;54.83;26.63;;;;;;;;;;5050979;28;19924;-65
2022/01/04 04:00:46;;;;;;;68.70;27.27;;;;;;;;;;5054190;28;20025;-70
2022/01/04 04:03:13;;;;;;;68.30;30.15;;;10.20;79.50;;;;;;5059887;28;20063;-69
2022/01/04 04:05:39;;;;;;;;;;;10.20;50.00;;;;;;5054526;28;20093;-66
2022/01/04 04:08:05;;;;;;;75.57;30.70;;;10.20;50.30;;;;;;5052897;28;19957;-65
2022/01/04 04:10:32;;;;;;;;;;;;;;;;;;5052689;28;20037;-66
2022/01/04 04:12:58;;;;;;;94.80;36.97;;;10.20;65.70;;;;;;5051421;28;20357;-68
2022/01/04 04:15:24;;;;;;;89.55;37.38;;;10.20;71.50;;;;;;5050442;28;20050;-67
2022/01/04 04:17:51;;;;;;;;;;;10.40;66.00;;;;;;5054324;28;20466;-63
2022/01/04 04:20:17;;;;;;;100.07;38.35;;;10.10;68.20;;;;;;5057009;28;20297;-67
2022/01/04 04:22:44;;;;;;;107.55;41.35;;;;;;;;;;5053274;28;20076;-68
2022/01/04 04:25:10;;;;;;;113.97;39.17;;;;;;;;;;5057237;28;20021;-68
2022/01/04 04:27:36;;;;;;;;;;;10.00;75.20;;;;;;5050512;28;20504;-66
2022/01/04 04:30:04;;;;;;;107.30;37.88;;;;;;;;;;5051520;28;20003;-66
2022/01/04 04:32:31;;;;;;;116.63;37.28;;;;;;;;;;5050156;28;20024;-68
2022/01/04 04:34:57;;;;;;;123.45;39.75;;;;;;;;;;5053514;28;20406;-66
2022/01/04 04:37:24;;;;;;;119.18;41.90;;;;;;;;;;5052598;28;20035;-59
2022/01/04 04:39:51;;;;;;;131.10;42.33;;;;;;;;;;5054406;28;20049;-67
2022/01/04 04:42:17;;;;;;;109.07;40.60;;;;;;;;;;5055936;28;20059;-65
2022/01/04 04:44:46;;;;;;;;;;;;;;;;;;5057848;28;20096;-65
2022/01/04 04:47:13;;;;;;;134.30;41.83;;;;;;;;;;5045545;28;20512;-66
2022/01/04 04:49:40;;;;;;;116.85;41.22;;;;;;;;;;5054365;28;20432;-67
2022/01/04 04:52:06;;;;;;;121.78;39.58;;;;;;;;;;5049861;28;20125;-67
2022/01/04 04:54:33;;;;;;;139.15;39.70;;;;;;;;;;5050191;28;20051;-68
2022/01/04 04:56:59;;;;;;;;;;;9.60;70.30;;;;;;5052295;28;20392;-62
2022/01/04 04:59:26;;;;;;;139.05;39.70;;;;;;;;;;5051331;28;19927;-67
2022/01/04 05:01:53;;;;;;;133.65;40.97;;;;;;;;;;5051147;28;20051;-66
2022/01/04 05:04:19;;;;;;;118.78;39.33;;;10.00;60.60;;;;;;5037553;28;20067;-66
2022/01/04 05:06:46;;;;;;;;;;;9.80;57.80;;;;;;5050478;28;20079;-69
2022/01/04 05:09:13;;;;;;;124.30;36.90;;;9.40;93.90;;;;;;5050542;28;19961;-68
2022/01/04 05:11:39;;;;;;;116.03;37.63;;;9.40;94.80;;;;;;5026679;28;20078;-66
2022/01/04 05:14:05;;;;;;;;;;;9.20;60.20;;;;;;5050294;28;20047;-68
2022/01/04 05:16:32;;;;;;;144.18;41.70;;;10.90;60.70;;;;;;5052436;28;19965;-65
2022/01/04 05:18:58;;;;;;;;;;;9.00;60.30;;;;;;5049720;28;20070;-67
2022/01/04 05:21:24;;;;;;;108.18;38.00;;;9.40;93.80;;;;;;5056555;28;19941;-70
2022/01/04 05:23:52;;;;;;;;;;;9.50;59.40;;;;;;5055897;28;20395;-67
2022/01/04 05:26:19;;;;;;;126.05;38.63;;;;;;;;;;5054953;28;19960;-67
2022/01/04 05:28:45;;;;;;;;;;;9.40;64.90;;;;;;5054954;28;20053;-67
2022/01/04 05:31:13;;;;;;;111.45;39.42;;;9.20;61.80;;;;;;5055382;28;19979;-68
2022/01/04 05:33:40;;;;;;;124.53;40.13;;;9.40;94.00;;;;;;5052059;28;20071;-68
2022/01/04 05:36:06;;;;;;;136.45;39.97;;;;;;;;;;5049505;28;20059;-66
2022/01/04 05:38:33;;;;;;;130.95;40.95;;;9.10;93.80;;;;;;5050404;28;20107;-68
2022/01/04 05:41:00;;;;;;;126.38;43.42;;;9.20;58.40;;;;;;5058383;28;20475;-66
2022/01/04 05:43:26;;;;;;;128.35;45.10;;;;;;;;;;5057723;28;20082;-67
2022/01/04 05:45:53;;;;;;;125.25;41.50;;;9.10;76.40;;;;;;5055985;28;20133;-67
2022/01/04 05:48:20;;;;;;;122.00;44.00;;;9.10;74.90;;;;;;5048934;28;20072;-67
2022/01/04 05:50:48;;;;;;;138.43;45.65;;;9.10;92.40;;;;;;5051855;28;20575;-68
2022/01/04 05:53:14;;;;;;;123.80;44.03;;;;;;;;;;5051920;28;20077;-69
2022/01/04 05:55:41;;;;;;;129.43;45.80;;;9.20;92.70;;;;;;5055986;28;20073;-68
2022/01/04 05:58:07;;;;;;;;;;;8.80;58.40;;;;;;5051008;28;20434;-68
2022/01/04 06:00:33;;;;;;;150.82;45.47;;;8.80;94.00;;;;;;5048868;28;19956;-68
2022/01/04 06:03:01;;;;;;;137.38;46.50;;;8.80;63.10;;;;;;5047617;28;20096;-67
2022/01/04 06:05:28;;;;;;;111.68;43.35;;;8.80;62.50;;;;;;5050330;28;20074;-68
2022/01/04 06:07:54;;;;;;;111.53;43.60;;;;;;;;;;5049011;28;20068;-69
2022/01/04 06:10:21;;;;;;;127.82;47.58;;;8.70;56.50;;;;;;5049082;28;20087;-68
2022/01/04 06:15:18;;;;;;;122.18;44.63;;;8.70;57.40;;;;;;5057521;28;20077;-67
2022/01/04 06:17:47;;;;;;;146.65;47.65;;;8.60;61.50;;;;;;5066881;28;20574;-66
2022/01/04 06:20:21;;;;;;;149.05;51.08;;;8.60;63.30;;;;;;5070465;28;20122;-67
2022/01/04 06:22:51;;;;;;;145.73;50.13;;;8.70;63.50;;;;;;5051888;28;20071;-68
2022/01/04 06:25:20;;;;;;;144.10;51.25;;;8.80;94.70;;;;;;5049587;28;20084;-67
2022/01/04 06:27:55;;;;;;;142.75;52.97;;;8.40;77.80;;;;;;5051533;28;20528;-67
2022/01/04 06:30:23;;;;;;;152.50;53.35;;;8.50;83.60;;;;;;5068858;28;20494;-65
2022/01/04 06:32:50;;;;;;;134.60;52.58;;;;;;;;;;5069289;28;20167;-66
2022/01/04 06:35:16;;;;;;;142.13;52.80;;;8.70;58.00;;;;;;5051565;28;20063;-67
2022/01/04 06:37:43;;;;;;;;;;;8.60;58.40;;;;;;5051694;28;20072;-68
2022/01/04 06:40:11;;;;;;;156.20;56.80;;;8.40;66.00;;;;;;5051051;28;20376;-69
2022/01/04 06:42:38;;;;;;;170.65;56.13;;;8.40;93.60;;;;;;5067976;28;20083;-68
2022/01/04 06:45:06;;;;;;;168.55;57.35;;;8.50;62.90;;;;;;5051978;28;20089;-67
2022/01/04 06:47:32;;;;;;;175.35;62.35;;;8.60;94.30;;;;;;5050727;28;20068;-67
2022/01/04 06:49:58;;;;;;;161.63;58.60;;;8.70;95.30;;;;;;5069241;28;20137;-68
2022/01/04 06:52:24;;;;;;;;;;;8.40;64.70;;;;;;5069578;28;20117;-67
2022/01/04 06:54:51;;;;;;;168.88;62.45;;;8.00;94.60;;;;;;5051017;28;19968;-68
2022/01/04 06:57:17;;;;;;;;;;;8.30;68.40;;;;;;5069865;28;20145;-66
2022/01/04 06:59:43;;;;;;;170.13;61.85;;;8.40;93.00;;;;;;5069027;28;20377;-67
2022/01/04 07:02:10;;;;;;;;;;;8.30;63.00;;;;;;5067966;28;20085;-68
2022/01/04 07:04:36;;;;;;;168.23;64.15;;;8.10;61.40;;;;;;5050871;28;20052;-66
2022/01/04 07:07:02;;;;;;;;;;;8.20;59.40;;;;;;5068732;28;20085;-66
2022/01/04 07:09:29;;;;;;;151.05;60.85;;;;;;;;;;5047798;28;20459;-65
2022/01/04 07:11:55;;;;;;;;;;;8.10;59.50;;;;;;5048141;28;20115;-65
2022/01/04 07:14:22;;;;;;;175.98;67.28;;;8.20;93.80;;;;;;5045421;28;19979;-66
2022/01/04 07:16:48;;;;;;;170.50;64.82;;;8.10;94.30;;;;;;5048250;28;20116;-66
2022/01/04 07:19:15;;;;;;;;;;;8.00;63.20;;;;;;5062131;28;20075;-66
2022/01/04 07:21:41;;;;;;;162.30;64.63;;;8.40;93.40;;;;;;5054337;28;19980;-66
2022/01/04 07:24:08;;;;;;;158.02;65.70;;;8.10;94.20;;;;;;5028900;28;20087;-68
2022/01/04 07:26:34;;;;;;;170.18;61.92;;;7.90;63.90;;;;;;5050524;28;20146;-65
2022/01/04 07:29:01;;;;;;;;;;;7.90;60.50;;;;;;5053387;28;20155;-64
2022/01/04 07:31:27;;;;;;;158.07;65.18;;;8.20;92.70;;;;;;5053429;28;20035;-66
2022/01/04 07:33:54;;;;;;;179.70;64.63;;;8.10;93.40;;;;;;5063685;28;20077;-66
2022/01/04 07:36:20;;;;;;;;;;;7.80;63.40;;;;;;5062968;28;20465;-64
2022/01/04 07:38:46;;;;;;;163.52;63.33;;;7.60;89.10;;;;;;5052518;28;19973;-66
2022/01/04 07:41:12;;;;;;;;;;;7.80;63.50;;;;;;5035382;28;20137;-65
2022/01/04 07:43:42;;;;;;;176.70;63.30;;;7.70;65.20;;;;;;5052054;28;19972;-65
2022/01/04 07:46:08;;;;;;;168.85;60.20;;;7.90;79.50;;;;;;5051652;28;20093;-64
2022/01/04 07:48:34;;;;;;;;;;;7.60;63.00;;;;;;5035048;28;20153;-69
2022/01/04 07:51:01;;;;;;;166.45;59.60;;;7.60;63.40;;;;;;5044176;28;19956;-65
2022/01/04 07:53:29;;;;;;;153.23;57.58;;;8.10;92.90;;;;;;5061959;28;20069;-65
2022/01/04 07:55:55;;;;;;;170.85;56.83;;;7.60;93.30;;;;;;5031034;28;20636;-63
2022/01/04 07:58:23;;;;;;;168.15;58.97;;;7.50;63.20;;;;;;5052372;28;20087;-66
2022/01/04 08:00:49;;;;;;;149.73;56.15;;;7.20;94.00;;;;;;5053230;28;20073;-66
2022/01/04 08:03:16;;;;;;;143.40;55.80;;;7.50;64.70;;;;;;5064851;28;20085;-66
2022/01/04 08:05:43;;;;;;;140.30;54.67;;;7.40;63.30;;;;;;5052943;28;20084;-67
2022/01/04 08:08:09;;;;;;;176.25;54.42;;;7.90;92.80;;;;;;5051792;28;20082;-66
2022/01/04 08:10:35;;;;;;;;;;;7.40;63.60;;;;;;5052400;28;20073;-66
2022/01/04 08:13:02;;;;;;;146.15;54.20;;;7.10;92.30;;;;;;5036059;28;20401;-66
2022/01/04 08:15:29;;;;;;;153.60;54.05;;;7.80;86.00;;;;;;5051723;28;20082;-66
2022/01/04 08:17:56;;;;;;;144.73;51.40;;;7.20;91.70;;;;;;5051458;28;20145;-65
2022/01/04 08:20:23;;;;;;;174.40;55.28;;;;;;;;;;5052518;28;20549;-65
2022/01/04 08:22:49;;;;;;;143.45;55.15;;;7.10;91.70;;;;;;5052491;28;20130;-67
2022/01/04 08:25:15;;;;;;;;;;;7.40;63.30;;;;;;5063209;28;20088;-67
2022/01/04 08:27:42;;;;;;;136.93;53.38;;;7.50;91.90;;;;;;5050590;28;19965;-68
2022/01/04 08:30:10;;;;;;;152.35;57.42;;;7.20;91.10;;;;;;5050631;28;20073;-66
2022/01/04 08:32:38;;;;;;;141.23;53.80;;;7.20;91.40;;;;;;5033498;28;20181;-65
2022/01/04 08:35:06;;;;;;;153.52;56.33;;;7.10;62.80;;;;;;5056617;28;20109;-66
2022/01/04 08:37:33;;;;;;;137.63;53.75;;;7.60;91.60;;;;;;5049552;28;20065;-66
2022/01/04 08:39:59;;;;;;;141.40;55.95;;;6.80;91.40;;;;;;5049942;28;20085;-65
2022/01/04 08:42:25;;;;;;;;;;;7.10;64.30;;;;;;5047392;28;20579;-65
2022/01/04 08:44:55;;;;;;;141.05;53.90;;;7.30;92.70;;;;;;5036305;28;19957;-65
2022/01/04 08:47:21;;;;;;;140.43;57.13;;;7.00;65.20;;;;;;5049887;28;20086;-65
2022/01/04 08:49:47;;;;;;;;;;;7.00;65.20;;;;;;5051354;28;20589;-65
2022/01/04 08:52:13;;;;;;;138.38;55.08;;;7.00;71.70;;;;;;5050701;28;20131;-65
2022/01/04 08:54:41;;;;;;;;;;;7.10;64.40;;;;;;5050677;28;20457;-64
2022/01/04 08:57:07;;;;;;;148.32;58.45;;;6.80;92.90;;;;;;5051326;28;19964;-65
2022/01/04 08:59:34;;;;;;;149.30;58.80;;;7.10;63.60;;;;;;5059721;28;21107;-64
2022/01/04 09:02:00;;;;;;;;;;;7.10;63.10;;;;;;5052612;28;20465;-65
2022/01/04 09:04:27;;;;;;;151.90;60.72;;;7.00;63.90;;;;;;5051827;28;20027;-66
2022/01/04 09:06:54;;;;;;;152.95;57.67;;;7.00;90.30;;;;;;5062266;28;20575;-67
2022/01/04 09:09:20;;;;;;;167.70;58.25;;;6.50;92.20;;;;;;5048463;28;20065;-66
2022/01/04 09:11:47;;;;;;;175.05;58.78;;;6.70;92.90;;;;;;5051182;28;20076;-67
2022/01/04 09:19:27;;;;;;;186.48;62.70;;;6.90;92.90;;;;;;5069055;28;20099;-65
2022/01/04 09:21:54;;;;;;;179.45;62.97;;;6.70;93.20;;;;;;5070174;28;20091;-67
2022/01/04 09:24:21;;;;;;;178.93;61.65;;;6.70;88.50;;;;;;5051313;28;20097;-65
2022/01/04 09:26:48;;;;;;;166.13;58.90;;;6.60;92.50;;;;;;5052121;28;20108;-67
2022/01/04 09:29:19;;;;;;;157.20;60.38;;;6.70;92.40;;;;;;5050995;28;20089;-66
2022/01/04 09:31:53;;;;;;;181.82;64.32;;;6.70;65.10;;;;;;5050814;28;20169;-69
2022/01/04 09:34:19;;;;;;;170.85;61.83;;;6.90;91.70;;;;;;5069530;28;20088;-66
2022/01/04 09:36:45;;;;;;;;;;;6.70;65.00;;;;;;5034683;28;20164;-66
2022/01/04 09:39:18;;;;;;;174.20;61.72;;;6.00;91.90;;;;;;5050918;28;19963;-66
2022/01/04 09:41:45;;;;;;;184.60;66.68;;;6.50;65.50;;;;;;5050073;28;20073;-65
2022/01/04 09:44:12;;;;;;;184.07;66.47;;;6.80;80.10;;;;;;5069121;28;20068;-67
2022/01/04 09:46:40;;;;;;;202.32;69.20;;;6.10;92.20;;;;;;5050344;28;20468;-65
2022/01/04 09:49:08;;;;;;;201.43;69.20;;;6.50;92.80;;;;;;5052066;28;20445;-66
2022/01/04 09:51:37;;;;;;;198.93;71.18;;;5.70;66.60;;;;;;5051299;28;20141;-66
2022/01/04 09:54:04;;;;;;;194.73;69.85;;;6.70;92.60;;;;;;5045722;28;20076;-67
2022/01/04 09:56:31;;;;;;;197.70;71.28;;;6.50;66.40;;;;;;5069285;28;20081;-67
2022/01/04 09:58:57;;;;;;;194.85;72.22;;;6.50;66.30;;;;;;5052413;28;20582;-67
2022/01/04 10:01:26;;;;;;;200.70;72.10;;;6.50;67.20;;;;;;5050368;28;20106;-66
2022/01/04 10:03:52;;;;;;;213.60;71.65;;;6.30;91.70;;;;;;5069743;28;20519;-66
2022/01/04 10:06:19;;;;;;;;;;;6.50;67.40;;;;;;5050957;28;20128;-65
2022/01/04 10:09:13;;;;;;;202.48;72.63;;;6.50;91.80;;;;;;5051454;28;19957;-68
2022/01/04 10:11:42;;;;;;;206.57;74.82;;;6.00;92.00;;;;;;5049103;28;20127;-62
2022/01/04 10:14:35;;;;;;;201.73;75.95;;;6.50;67.00;;;;;;5051057;28;20167;-65
2022/01/04 10:17:17;;;;;;;195.80;77.32;;;6.30;92.00;;;;;;5042533;28;20607;-65
2022/01/04 10:19:46;;;;;;;224.75;77.38;;;6.50;92.40;;;;;;5048081;28;20445;-65
2022/01/04 10:22:20;;;;;;;200.50;77.70;;;6.40;67.70;;;;;;5049406;28;20218;-67
2022/01/04 10:24:51;;;;;;;216.25;76.78;;;6.40;66.90;;;;;;5046227;28;20568;-67
2022/01/04 10:27:47;;;;;;;214.70;77.43;;;6.40;67.30;;;;;;5050465;28;21006;-65
2022/01/04 10:30:30;;;;;;;206.18;79.13;;;6.40;67.60;;;;;;5062194;28;20065;-67
2022/01/04 10:33:06;;;;;;;209.68;82.68;;;6.00;93.00;;;;;;5046443;28;20115;-67
2022/01/04 10:35:37;;;;;;;222.38;79.82;;;6.20;67.70;;;;;;5049752;28;20089;-66
2022/01/04 10:38:20;;;;;;;221.70;83.60;;;6.10;92.20;;;;;;5067629;28;20439;-66
2022/01/04 10:40:48;;;;;;;250.30;82.90;;;6.70;68.60;;;;;;5055925;28;20081;-65
2022/01/04 10:43:21;;;;;;;233.50;82.75;;;6.10;68.40;;;;;;5050173;28;20455;-67
2022/01/04 10:45:49;;;;;;;229.85;87.25;;;6.20;92.80;;;;;;5051637;28;20097;-65
2022/01/04 10:48:18;;;;;;;229.75;86.38;;;6.10;69.00;;;;;;5049446;28;20113;-66
2022/01/04 10:50:51;;;;;;;231.48;86.20;;;6.10;92.20;;;;;;5049708;28;20074;-64
2022/01/04 10:53:26;;;;;;;239.90;87.13;;;5.80;76.90;;;;;;5041697;28;20571;-65
2022/01/04 10:55:58;;;;;;;238.63;84.03;;;5.80;92.30;;;;;;5040792;28;20087;-67
2022/01/04 10:58:31;;;;;;;236.13;86.07;;;6.20;91.90;;;;;;5049166;28;20080;-66
2022/01/04 11:01:01;;;;;;;250.10;86.18;;;6.00;66.50;;;;;;5049435;28;20078;-66
2022/01/04 11:03:31;;;;;;;238.02;83.97;;;6.00;66.40;;;;;;5052616;28;20515;-67
2022/01/04 11:06:05;;;;;;;235.27;81.07;;;6.30;92.30;;;;;;5052911;28;20085;-66
2022/01/04 11:08:31;;;;;;;225.98;84.90;;;5.90;66.40;;;;;;5053626;28;20078;-66
2022/01/04 11:10:59;;;;;;;224.98;83.25;;;6.00;66.30;;;;;;5053252;28;20521;-66
2022/01/04 11:13:25;;;;;;;216.40;82.75;;;6.20;91.70;;;;;;5064423;28;20070;-68
2022/01/04 11:15:53;;;;;;;226.88;83.85;;;5.90;66.10;;;;;;5052696;28;20073;-64
2022/01/04 11:18:19;;;;;;;230.43;85.07;;;5.90;91.00;;;;;;5052741;28;20085;-64
2022/01/04 11:20:46;;;;;;;241.40;86.95;;;5.90;65.90;;;;;;5061398;28;20081;-66
2022/01/04 11:23:15;;;;;;;228.23;83.40;;;5.80;66.70;;;;;;5063044;28;20156;-65
2022/01/04 11:25:45;;;;;;;225.52;84.93;;;6.00;91.50;;;;;;5053612;28;20092;-68
2022/01/04 11:28:14;;;;;;;226.98;83.72;;;5.90;67.40;;;;;;5053704;28;20074;-63
2022/01/04 11:31:05;;;;;;;224.45;85.60;;;5.90;67.80;;;;;;5039537;28;20165;-66
2022/01/04 11:33:47;;;;;;;221.80;85.07;;;5.90;91.40;;;;;;5050669;28;20116;-66
2022/01/04 11:36:15;;;;;;;212.23;88.88;;;5.80;68.10;;;;;;5036413;28;20084;-67
2022/01/04 11:38:41;;;;;;;241.57;84.65;;;5.90;67.80;;;;;;5051928;28;20460;-68
2022/01/04 11:41:08;;;;;;;;;;;5.80;67.90;;;;;;5051703;28;20222;-69
2022/01/04 11:43:39;;;;;;;229.18;85.32;;;5.80;92.40;;;;;;5044657;28;20053;-66
2022/01/04 11:46:06;;;;;;;226.88;84.55;;;5.70;92.30;;;;;;5052962;28;20084;-67
2022/01/04 11:48:33;;;;;;;228.77;86.05;;;6.00;93.40;;;;;;5051820;28;20065;-66
2022/01/04 11:51:06;;;;;;;224.18;85.43;;;5.90;68.70;;;;;;5052804;28;20448;-67
2022/01/04 11:53:33;;;;;;;221.52;84.55;;;5.80;68.40;;;;;;5038352;28;20074;-67
2022/01/04 11:56:05;;;;;;;237.05;86.25;;;5.80;69.00;;;;;;5054017;28;20160;-67
2022/01/04 11:58:46;;;;;;;222.63;81.50;;;5.80;91.90;;;;;;5063470;28;20065;-64
2022/01/04 12:01:25;;;;;;;226.35;87.15;;;5.70;68.70;;;;;;5053217;28;20093;-64
2022/01/04 12:03:51;;;;;;;232.38;82.88;;;5.70;68.00;;;;;;5057818;28;20686;-68
2022/01/04 12:06:21;;;;;;;200.38;82.68;;;5.70;68.60;;;;;;5063448;28;20182;-67
2022/01/04 12:08:53;;;;;;;220.63;86.70;;;5.80;92.70;;;;;;5050589;28;20453;-66
2022/01/04 12:11:41;;;;;;;224.50;83.75;;;5.40;93.30;;;;;;5062769;28;20416;-67
2022/01/04 12:14:21;;;;;;;;;;;5.70;69.50;;;;;;5055888;28;20449;-66
2022/01/04 12:17:03;;;;;;;206.35;84.65;;;5.60;92.80;;;;;;5051138;28;19991;-66
2022/01/04 12:19:49;;;;;;;218.82;83.68;;;5.40;93.40;;;;;;5059721;28;20160;-68
2022/01/04 12:22:30;;;;;;;219.60;86.03;;;5.60;68.80;;;;;;5064481;28;20160;-64
2022/01/04 12:25:06;;;;;;;216.43;85.10;;;5.60;91.10;;;;;;5050658;28;20150;-67
2022/01/04 12:27:33;;;;;;;232.57;87.18;;;5.40;83.40;;;;;;5049507;28;20146;-68
2022/01/04 12:30:21;;;;;;;223.68;81.40;;;5.50;92.80;;;;;;5052782;28;20623;-68
2022/01/04 12:32:48;;;;;;;233.45;86.07;;;5.50;94.00;;;;;;5050566;28;20081;-64
2022/01/04 12:35:16;;;;;;;;;;;5.40;69.70;;;;;;5064981;28;20069;-67
2022/01/04 12:37:43;;;;;;;213.40;87.75;;;5.70;93.30;;;;;;5052499;28;19996;-66
2022/01/04 12:40:10;;;;;;;223.60;85.07;;;5.70;92.70;;;;;;5063300;28;20104;-68
2022/01/04 12:42:41;;;;;;;237.02;90.05;;;5.50;70.20;;;;;;5050085;28;20117;-65
2022/01/04 12:45:07;;;;;;;211.77;87.60;;;5.50;70.80;;;;;;5050956;28;20448;-66
2022/01/04 12:47:35;;;;;;;226.68;85.68;;;5.40;71.30;;;;;;5051344;28;20079;-66
2022/01/04 12:50:05;;;;;;;223.07;89.38;;;5.40;71.00;;;;;;5050806;28;20073;-67
2022/01/04 12:52:31;;;;;;;229.45;89.93;;;5.40;71.30;;;;;;5034556;28;20070;-67
2022/01/04 12:54:59;;;;;;;221.13;86.43;;;5.40;93.00;;;;;;5051230;28;20108;-66
2022/01/04 12:57:26;;;;;;;222.50;86.32;;;5.50;93.20;;;;;;5062471;28;20089;-66
2022/01/04 12:59:55;;;;;;;208.70;85.38;;;6.60;72.20;;;;;;5062955;28;20079;-64
2022/01/04 13:02:32;;;;;;;227.15;88.38;;;5.40;71.40;;;;;;5064422;28;20089;-65
2022/01/04 13:05:09;;;;;;;;;;;5.40;71.30;;;;;;5033356;28;20081;-65
2022/01/04 13:07:37;;;;;;;220.53;90.17;;;5.50;94.50;;;;;;5061989;28;19990;-62
2022/01/04 13:10:15;;;;;;;213.35;87.57;;;5.30;94.50;;;;;;5049524;28;20806;-67